x

East Dellwood (46207) Wave Buoy

9:00pm - Fri 12th Feb 2016 All times are PST. -8 hours from GMT.

  • Sig Wave height 10.8ft
  • Peak Period 15s
  • Wind
    20mph, 25mph gusts
  • Sea Temp 48°f
  • Air Temp 48°f
  • Sea Pressure 1013mb
  • East Dellwood
  • East Dellwood

More Historic Weather Station data

Upgrade to MSW Pro to gain access to the past 30 days of data for over 8000 Wavebouys and Weather Stations around the globe.

Join Pro

Comparision Forecast

View Surf forecast
   
Fri 02/12 9:00pm 11ft 15s 20 25 mph 1013mb 48f 48f
8:00pm 10ft 15s 13 18 mph 1012.7mb 48f 48f
7:00pm 10.5ft 15s 18 22 mph 1012.2mb 48f 49f
6:00pm 10ft 12s 18 22 mph 1011.6mb 48f 48f
5:00pm 10.5ft 14s 20 22 mph 1011.1mb 48f 49f
4:00pm 11ft 14s 20 22 mph 1010.7mb 48f 49f
3:00pm 11.5ft 14s 22 27 mph 1010.1mb 48f 48f
2:00pm 11ft 14s 20 25 mph 1010.4mb 48f 48f
1:00pm 12ft 15s 25 31 mph 1010.4mb 48f 48f
12:00pm 11.5ft 14s 22 27 mph 1010.3mb 48f 48f
11:00am 12ft 16s 22 27 mph 1010.5mb 48f 49f
10:00am 12.5ft 15s 20 25 mph 1010.6mb 48f 49f
9:00am 12ft 16s 16 18 mph 1010.7mb 48f 49f
8:00am 13.5ft 16s 16 18 mph 1010.6mb 48f 49f
7:00am 14ft 16s 13 18 mph 1010.3mb 48f 48f
6:00am 13.5ft 12s 11 16 mph 1010.1mb 48f 48f
5:00am 13ft 12s 13 18 mph 1009.8mb 48f 49f
4:00am 13ft 17s 13 18 mph 1009.5mb 48f 49f
3:00am 14ft 17s 16 20 mph 1009mb 48f 49f
2:00am 14.5ft 10s 16 20 mph 1008.5mb 48f 49f
1:00am 14ft 10s 16 22 mph 1008.3mb 48f 49f
12:00am 15.5ft 9s 16 20 mph 1008mb 48f 49f
Thu 02/11 11:00pm 15.5ft 10s 22 29 mph 1006.9mb 48f 50f
10:00pm 16.5ft 10s 27 31 mph 1006.2mb 49f 50f
9:00pm 16ft 10s 29 36 mph 1006.1mb 49f 50f
8:00pm 17.5ft 10s 29 36 mph 1006.1mb 48f 50f
7:00pm 17.5ft 9s 29 36 mph 1006.5mb 48f 50f
6:00pm 17.5ft 10s 29 38 mph 1006.3mb 48f 49f
4:00pm 15.5ft 17s 34 43 mph 1005.8mb 48f 49f
2:00pm 15ft 13s 27 34 mph 1008.2mb 48f 47f
1:00pm  -   -  34
mph
1009.5mb - 47f
12:00pm 14ft 12s 29 38 mph 1011.3mb 48f 49f
11:00am 15ft 14s 27 31 mph 1012.6mb 48f 50f
10:00am 15.5ft 14s 25 31 mph 1013.5mb 48f 51f
9:00am 15ft 14s 27 34 mph 1013.8mb 48f 50f
8:00am 14.5ft 12s 25 34 mph 1014.3mb 48f 49f
7:00am 14ft 13s 22 29 mph 1015mb 48f 49f
6:00am 15.5ft 20s 27 34 mph 1016.3mb 48f 50f
5:00am 15ft 20s 29 36 mph 1017.1mb 48f 50f
4:00am 13.5ft 18s 27 36 mph 1017.4mb 48f 49f
3:00am 13.5ft 18s 27 34 mph 1018.3mb 48f 49f
2:00am 12ft 18s 22 29 mph 1018.4mb 48f 49f
1:00am 12ft 18s 18 22 mph 1018.9mb 48f 49f
12:00am 11.5ft 18s 20 25 mph 1019mb 48f 49f
Wed 02/10 11:00pm 11.5ft 20s 20 25 mph 1019.5mb 47f 49f
10:00pm 11ft 10s 18 22 mph 1019.3mb 47f 49f
9:00pm 11ft 20s 16 20 mph 1018.8mb 47f 49f
8:00pm 10.5ft 12s 18 22 mph 1018.5mb 48f 49f
7:00pm 10ft 8s 18 22 mph 1017.8mb 48f 49f
6:00pm 11ft 8s 18 22 mph 1017.2mb 48f 50f
5:00pm 11ft 8s 18 22 mph 1016mb 48f 50f
4:00pm 11.5ft 8s 18 22 mph 1014.8mb 48f 50f
3:00pm 11ft 8s 20 25 mph 1013.4mb 48f 50f
2:00pm 12ft 8s 22 27 mph 1012mb 48f 50f
1:00pm 12ft 8s 22 29 mph 1010.8mb 48f 50f
12:00pm 13ft 8s 22 29 mph 1009.5mb 48f 50f
11:00am 14ft 8s 31 40 mph 1007.7mb 48f 50f
10:00am 13.5ft 8s 31 38 mph 1007.3mb 48f 50f
9:00am 12.5ft 7s 31 40 mph 1007.3mb 48f 50f
8:00am 11ft 8s 31 40 mph 1007.3mb 48f 49f
7:00am 10.5ft 7s 31 40 mph 1008.1mb 48f 49f
6:00am 10ft 7s 29 36 mph 1009mb 48f 49f
5:00am 9ft 7s 25 31 mph 1009.8mb 48f 50f
4:00am 9ft 7s 25 31 mph 1010.7mb 48f 49f
3:00am 10ft 8s 25 31 mph 1011.2mb 48f 49f
2:00am 9.5ft 8s 25 29 mph 1011.5mb 48f 49f
1:00am 10ft 8s 22 29 mph 1012.2mb 48f 49f
12:00am 10ft 8s 22 31 mph 1012.5mb 48f 48f
Tue 02/09 11:00pm 10.5ft 8s 22 31 mph 1012.7mb 48f 49f
10:00pm 12ft 8s 20 25 mph 1012.1mb 48f 50f
9:00pm 12ft 8s 22 27 mph 1011mb 48f 50f
8:00pm 12ft 8s 29 34 mph 1010.2mb 48f 50f
7:00pm 12ft 8s 29 38 mph 1008.8mb 48f 50f
6:00pm 11ft 8s 27 36 mph 1008.9mb 48f 49f
5:00pm 11ft 8s 27 31 mph 1009.1mb 48f 50f
4:00pm 11ft 8s 27 34 mph 1009.4mb 49f 50f
3:00pm 11.5ft 8s 27 34 mph 1008.9mb 49f 51f
2:00pm 12ft 8s 27 31 mph 1009.3mb 48f 51f
1:00pm 11.5ft 7s 29 34 mph 1009.5mb 48f 51f
12:00pm 11ft 7s 27 34 mph 1010.3mb 48f 52f
11:00am 11ft 11s 27 34 mph 1011.2mb 48f 52f
10:00am 10.5ft 13s 29 38 mph 1011.5mb 48f 52f
9:00am 9ft 12s 29 38 mph 1011.6mb 48f 52f
8:00am 9ft 12s 27 36 mph 1012.1mb 48f 52f
7:00am 8.5ft 13s 18 22 mph 1013.3mb 48f 52f